This is the latest recevied weather packets stored in our database for station/object KV9E. If no packets are shown the sender has not sent any weather packets the latest 10 day(s).
| Time | Temp. | Humidity | Pressure | Rain* | Wind** | Luminosity | Snow |
|---|---|---|---|---|---|---|---|
| 1787958531 | 25.56° C | 62% | 1017.6 hPa | 0 mm | - | 31 W/m² | - |
| 1787958227 | 25.56° C | 64% | 1017.6 hPa | 0 mm | - | 32 W/m² | - |
| 1787957925 | 26.67° C | 61% | 1017.3 hPa | 0 mm | - | 37 W/m² | - |
| 1787957620 | 26.67° C | 61% | 1017.5 hPa | 0 mm | - | 51 W/m² | - |
| 1787957316 | 27.22° C | 60% | 1017.3 hPa | 0 mm | - | 107 W/m² | - |
| 1787957015 | 27.22° C | 59% | 1017 hPa | 0 mm | - | 116 W/m² | - |
| 1787956714 | 27.78° C | 57% | 1017.1 hPa | 0 mm | - | 130 W/m² | - |
| 1787956410 | 27.78° C | 56% | 1017.2 hPa | 0 mm | - | 136 W/m² | - |
| 1787956105 | 27.78° C | 56% | 1017.4 hPa | 0 mm | - | 152 W/m² | - |
| 1787955800 | 27.78° C | 56% | 1017.3 hPa | 0 mm | - | 160 W/m² | - |
| 1787955496 | 28.33° C | 56% | 1017.4 hPa | 0 mm | - | 176 W/m² | - |
| 1787955194 | 28.33° C | 54% | 1017.3 hPa | 0 mm | - | 185 W/m² | - |
| 1787954891 | 28.33° C | 56% | 1017.3 hPa | 0 mm | - | 200 W/m² | - |
| 1787954587 | 28.33° C | 58% | 1017.3 hPa | 0 mm | - | 207 W/m² | - |
| 1787954285 | 28.33° C | 58% | 1017.1 hPa | 0 mm | - | 225 W/m² | - |
| 1787953981 | 28.33° C | 57% | 1017.4 hPa | 0 mm | - | 234 W/m² | - |
| 1787953679 | 28.33° C | 56% | 1017.4 hPa | 0 mm | - | 251 W/m² | - |
| 1787953375 | 28.33° C | 57% | 1017.2 hPa | 0 mm | - | 263 W/m² | - |
| 1787953073 | 28.33° C | 57% | 1017.3 hPa | 0 mm | - | 277 W/m² | - |
| 1787952771 | 28.89° C | 57% | 1017.3 hPa | 0 mm | - | 291 W/m² | - |
| 1787952461 | 28.89° C | 55% | 1017.4 hPa | 0 mm | - | 303 W/m² | - |
| 1787952157 | 28.89° C | 55% | 1017.2 hPa | 0 mm | - | 314 W/m² | - |
| 1787951850 | 28.89° C | 55% | 1017.5 hPa | 0 mm | - | 349 W/m² | - |
| 1787951546 | 29.44° C | 55% | 1017.2 hPa | 0 mm | - | 351 W/m² | - |
| 1787951242 | 28.89° C | 57% | 1017.4 hPa | 0 mm | - | 360 W/m² | - |
* Rain latest hour (hover to see other rain measurements)
** Current wind speed in m/s (hover to see current wind gust speed)